Time;durP1;ratioP1;P1;durP2;ratioP2;P2;SDS_P1;SDS_P2;PMS_P1;PMS_P2;Temp;Humidity;BMP_temperature;BMP_pressure;BME280_temperature;BME280_humidity;BME280_pressure;Samples;Min_cycle;Max_cycle;Signal;HPM_P1;HPM_P2
2023/10/28 00:00:55;;;;;;;9.68;6.07;;;;;;;10.04;100.00;98610.22;5053790;28;20071;-83
2023/10/28 00:03:22;;;;;;;10.27;6.40;;;;;;;10.05;100.00;98608.94;5053571;28;20039;-84
2023/10/28 00:05:48;;;;;;;10.73;6.40;;;;;;;10.09;100.00;98617.97;5054721;28;20032;-82
2023/10/28 00:08:14;;;;;;;10.00;6.32;;;;;;;10.10;100.00;98623.16;5053375;28;20390;-84
2023/10/28 00:10:42;;;;;;;9.38;6.40;;;;;;;10.08;100.00;98613.59;5054767;28;20047;-82
2023/10/28 00:13:09;;;;;;;9.30;5.78;;;;;;;10.11;100.00;98612.50;5054352;28;20055;-82
2023/10/28 00:15:36;;;;;;;9.50;6.00;;;;;;;10.11;100.00;98619.00;5054648;28;20041;-83
2023/10/28 00:18:03;;;;;;;9.95;6.32;;;;;;;10.09;100.00;98617.97;5055033;28;20104;-83
2023/10/28 00:20:29;;;;;;;12.27;7.05;;;;;;;9.89;100.00;98576.38;5053756;28;20036;-83
2023/10/28 00:22:57;;;;;;;11.82;6.60;;;;;;;10.02;100.00;98604.28;5055052;28;20029;-83
2023/10/28 00:25:31;;;;;;;9.55;6.25;;;;;;;9.99;100.00;98611.03;5052634;28;20459;-83
2023/10/28 00:27:57;;;;;;;11.18;7.05;;;;;;;10.01;100.00;98614.94;5052919;28;20452;-82
2023/10/28 00:30:25;;;;;;;12.23;7.13;;;;;;;10.03;100.00;98614.41;5036733;28;20097;-82
2023/10/28 00:32:54;;;;;;;11.15;5.95;;;;;;;10.05;100.00;98617.50;5053624;28;20098;-83
2023/10/28 00:35:24;;;;;;;12.23;7.13;;;;;;;10.08;100.00;98616.44;5054865;28;20028;-82
2023/10/28 00:37:50;;;;;;;11.43;6.93;;;;;;;10.13;100.00;98626.25;5054690;28;20032;-83
2023/10/28 00:40:17;;;;;;;9.82;6.90;;;;;;;10.13;100.00;98629.13;5054142;28;20082;-82
2023/10/28 00:42:43;;;;;;;11.00;7.75;;;;;;;10.16;100.00;98631.69;5054695;28;20033;-83
2023/10/28 00:45:17;;;;;;;14.85;7.65;;;;;;;10.19;100.00;98624.13;5054582;28;20449;-84
2023/10/28 00:47:46;;;;;;;13.45;7.82;;;;;;;10.22;100.00;98626.69;5061201;28;20067;-82
2023/10/28 00:50:15;;;;;;;11.80;7.88;;;;;;;10.25;100.00;98636.28;5058139;28;20090;-84
2023/10/28 00:52:47;;;;;;;14.15;7.55;;;;;;;10.27;100.00;98639.38;5065208;28;20093;-83
2023/10/28 00:55:18;;;;;;;11.13;6.57;;;;;;;10.28;100.00;98638.84;5061073;28;20063;-83
2023/10/28 00:57:46;;;;;;;12.73;7.25;;;;;;;10.30;100.00;98636.22;5055108;28;20048;-82
2023/10/28 01:00:17;;;;;;;13.00;7.35;;;;;;;10.33;100.00;98640.13;5058647;28;20025;-82
2023/10/28 01:02:44;;;;;;;12.90;7.57;;;;;;;10.31;100.00;98617.78;5064665;28;20075;-83
2023/10/28 01:05:13;;;;;;;10.02;7.05;;;;;;;10.31;100.00;98614.94;5062459;28;20033;-82
2023/10/28 01:07:45;;;;;;;12.15;6.63;;;;;;;10.39;100.00;98626.53;5060582;28;20044;-82
2023/10/28 01:10:15;;;;;;;11.82;7.22;;;;;;;10.39;100.00;98630.16;5038199;28;20337;-83
2023/10/28 01:12:43;;;;;;;12.03;6.70;;;;;;;10.37;100.00;98629.94;5050849;28;20117;-82
2023/10/28 01:15:08;;;;;;;10.52;6.65;;;;;;;10.34;100.00;98638.78;5054671;28;20054;-84
2023/10/28 01:17:35;;;;;;;10.23;6.00;;;;;;;10.29;100.00;98648.16;5054973;28;20470;-83
2023/10/28 01:20:01;;;;;;;10.57;5.95;;;;;;;10.22;100.00;98651.63;5054656;28;20108;-83
2023/10/28 01:22:28;;;;;;;10.15;6.32;;;;;;;10.13;100.00;98658.44;5056711;28;20063;-82
2023/10/28 01:25:02;;;;;;;8.60;5.80;;;;;;;10.00;100.00;98653.31;5039389;28;20024;-82
2023/10/28 01:27:28;;;;;;;14.23;8.23;;;;;;;10.14;100.00;98662.06;5053647;28;20049;-83
2023/10/28 01:29:53;;;;;;;10.15;6.53;;;;;;;10.16;100.00;98671.63;5052780;28;20461;-83
2023/10/28 01:32:19;;;;;;;12.93;6.70;;;;;;;10.14;100.00;98668.53;5053859;28;20074;-84
2023/10/28 01:35:10;;;;;;;9.15;6.35;;;;;;;10.22;100.00;98675.22;5053536;28;20036;-84
2023/10/28 01:37:38;;;;;;;;;;;;;;;10.23;100.00;98673.16;5053433;28;20028;-82
2023/10/28 01:40:17;;;;;;;11.10;6.63;;;;;;;10.25;100.00;98679.09;5053623;28;19957;-84
2023/10/28 01:42:46;;;;;;;11.25;7.13;;;;;;;10.26;100.00;98666.38;5052962;28;20389;-84
2023/10/28 01:45:18;;;;;;;14.15;8.55;;;;;;;10.20;100.00;98651.34;5049765;28;20540;-82
2023/10/28 01:47:44;;;;;;;12.70;8.18;;;;;;;10.32;100.00;98678.53;5052041;28;20422;-83
2023/10/28 01:50:11;;;;;;;12.98;8.32;;;;;;;10.36;100.00;98679.00;5052285;28;20024;-83
2023/10/28 01:52:37;;;;;;;12.88;8.85;;;;;;;10.32;100.00;98667.88;5053520;28;20052;-82
2023/10/28 01:55:04;;;;;;;11.73;8.15;;;;;;;10.41;100.00;98681.03;5035916;28;20127;-83
2023/10/28 01:57:30;;;;;;;14.35;7.75;;;;;;;10.43;100.00;98679.19;5053810;28;20428;-83
2023/10/28 01:59:58;;;;;;;12.05;8.02;;;;;;;10.46;100.00;98674.50;5052726;28;20033;-84
2023/10/28 02:02:25;;;;;;;13.80;9.18;;;;;;;10.47;100.00;98678.94;5056593;28;20029;-82
2023/10/28 02:04:51;;;;;;;20.35;9.35;;;;;;;10.50;100.00;98675.00;5057240;28;20078;-83
2023/10/28 02:07:17;;;;;;;25.75;15.00;;;;;;;10.52;100.00;98680.97;5055798;28;20462;-84
2023/10/28 02:09:44;;;;;;;32.35;20.20;;;;;;;10.52;100.00;98675.25;5056389;28;20029;-84
2023/10/28 02:12:10;;;;;;;36.22;21.40;;;;;;;10.57;100.00;98685.06;5056999;28;20028;-83
2023/10/28 02:14:37;;;;;;;39.05;22.00;;;;;;;10.58;100.00;98684.50;5056586;28;20025;-81
2023/10/28 02:17:03;;;;;;;34.30;19.85;;;;;;;10.49;100.00;98668.50;5056698;28;20033;-83
2023/10/28 02:19:31;;;;;;;31.92;18.45;;;;;;;10.61;100.00;98689.19;5057025;28;20103;-84
2023/10/28 02:21:58;;;;;;;27.98;17.02;;;;;;;10.64;100.00;98685.25;5056978;28;20040;-84
2023/10/28 02:24:26;;;;;;;26.05;16.33;;;;;;;10.67;100.00;98689.91;5057207;28;20466;-82
2023/10/28 02:26:52;;;;;;;25.20;14.93;;;;;;;10.67;100.00;98692.78;5057078;28;20033;-83
2023/10/28 02:29:19;;;;;;;22.45;13.77;;;;;;;10.68;100.00;98693.53;5055614;28;20044;-84
2023/10/28 02:31:46;;;;;;;22.85;11.73;;;;;;;10.71;100.00;98701.03;5056726;28;20094;-82
2023/10/28 02:34:13;;;;;;;23.52;12.20;;;;;;;10.72;100.00;98699.75;5055777;28;20029;-83
2023/10/28 02:36:39;;;;;;;22.65;11.70;;;;;;;10.71;100.00;98695.31;5056871;28;20048;-82
2023/10/28 02:39:06;;;;;;;24.20;13.05;;;;;;;10.64;100.00;98693.03;5055334;28;20036;-83
2023/10/28 02:41:33;;;;;;;19.80;11.77;;;;;;;10.73;100.00;98701.28;5055363;28;20029;-83
2023/10/28 02:44:03;;;;;;;20.25;12.50;;;;;;;10.63;100.00;98680.09;5055764;28;20025;-82
2023/10/28 02:46:30;;;;;;;22.45;12.38;;;;;;;10.68;100.00;98688.59;5055395;28;20033;-83
2023/10/28 02:48:55;;;;;;;22.85;13.63;;;;;;;10.68;100.00;98691.44;5054816;28;20033;-84
2023/10/28 02:51:21;;;;;;;24.35;13.40;;;;;;;10.69;100.00;98697.94;5055402;28;20029;-83
2023/10/28 02:53:46;;;;;;;19.42;11.10;;;;;;;10.67;100.00;98701.34;5056515;28;20104;-83
2023/10/28 02:56:12;;;;;;;19.60;12.88;;;;;;;10.68;100.00;98694.28;5067760;28;20100;-83
2023/10/28 02:58:39;;;;;;;24.20;13.13;;;;;;;10.69;100.00;98704.41;5067822;28;20036;-82
2023/10/28 03:01:11;;;;;;;19.35;11.95;;;;;;;10.73;100.00;98707.00;5070860;28;20084;-82
2023/10/28 03:03:37;;;;;;;17.60;11.30;;;;;;;10.74;100.00;98697.88;5044178;28;20067;-83
2023/10/28 03:06:03;;;;;;;19.85;11.00;;;;;;;10.76;100.00;98708.78;5062722;28;20025;-82
2023/10/28 03:08:32;;;;;;;13.00;8.35;;;;;;;10.72;100.00;98696.88;5079915;28;20025;-83
2023/10/28 03:10:58;;;;;;;11.88;7.45;;;;;;;10.70;100.00;98702.34;5067605;28;20036;-84
2023/10/28 03:13:25;;;;;;;12.05;7.80;;;;;;;10.71;100.00;98695.31;5064995;28;20308;-83
2023/10/28 03:15:53;;;;;;;11.07;7.30;;;;;;;10.71;100.00;98706.75;5063498;28;20124;-84
2023/10/28 03:18:21;;;;;;;13.48;8.18;;;;;;;10.73;100.00;98712.72;5062956;28;20001;-82
2023/10/28 03:20:47;;;;;;;18.40;8.02;;;;;;;10.71;100.00;98707.53;5057885;28;20032;-83
2023/10/28 03:23:14;;;;;;;14.63;9.07;;;;;;;10.69;100.00;98700.78;5056539;28;20029;-83
2023/10/28 03:25:50;;;;;;;18.73;10.27;;;;;;;10.74;100.00;98708.53;5060051;28;20028;-83
2023/10/28 03:28:16;;;;;;;17.23;11.85;;;;;;;10.66;100.00;98676.16;5059619;28;20445;-82
2023/10/28 03:30:41;;;;;;;18.20;11.65;;;;;;;10.77;100.00;98696.06;5061912;28;20032;-83
2023/10/28 03:33:09;;;;;;;21.23;13.02;;;;;;;10.74;100.00;98699.97;5062854;28;20079;-82
2023/10/28 03:35:37;;;;;;;19.02;12.93;;;;;;;10.79;100.00;98697.06;5057323;28;20036;-83
2023/10/28 03:38:04;;;;;;;21.60;13.55;;;;;;;10.79;100.00;98699.13;5055760;28;20040;-83
2023/10/28 03:40:34;;;;;;;23.67;12.88;;;;;;;10.83;100.00;98706.09;5055547;28;20390;-83
2023/10/28 03:43:00;;;;;;;20.27;11.55;;;;;;;10.79;100.00;98697.06;5037767;28;20485;-84
2023/10/28 03:45:28;;;;;;;16.42;9.93;;;;;;;10.85;100.00;98709.22;5053803;28;20026;-83
2023/10/28 03:47:54;;;;;;;16.88;8.85;;;;;;;10.87;100.00;98709.47;5053737;28;20053;-83
2023/10/28 03:50:22;;;;;;;14.85;8.25;;;;;;;10.89;100.00;98706.06;5054347;28;20136;-83
2023/10/28 03:52:49;;;;;;;11.48;7.28;;;;;;;10.90;100.00;98702.66;5054268;28;20091;-83
2023/10/28 03:55:14;;;;;;;10.75;6.85;;;;;;;10.90;100.00;98707.59;5052688;28;20466;-83
2023/10/28 03:57:40;;;;;;;10.50;6.03;;;;;;;10.90;100.00;98705.53;5055299;28;20025;-83
2023/10/28 04:00:10;;;;;;;8.07;5.65;;;;;;;10.91;100.00;98709.16;5055343;28;20048;-84
2023/10/28 04:02:36;;;;;;;9.43;6.22;;;;;;;10.92;100.00;98714.34;5053688;28;20032;-83
2023/10/28 04:05:03;;;;;;;10.45;6.32;;;;;;;10.89;100.00;98706.84;5054862;28;20059;-83
2023/10/28 04:07:29;;;;;;;9.93;5.80;;;;;;;10.94;100.00;98714.59;5037509;28;20389;-82
2023/10/28 04:09:55;;;;;;;8.98;5.70;;;;;;;10.96;100.00;98709.13;5055736;28;20450;-83
2023/10/28 04:12:22;;;;;;;8.43;5.85;;;;;;;10.97;100.00;98704.19;5037339;28;20025;-82
2023/10/28 04:14:48;;;;;;;19.17;6.15;;;;;;;10.99;100.00;98704.41;5054096;28;20040;-83
2023/10/28 04:17:15;;;;;;;7.97;5.13;;;;;;;11.01;100.00;98712.44;5055080;28;20385;-81
2023/10/28 04:19:42;;;;;;;8.95;5.30;;;;;;;11.01;100.00;98721.03;5055494;28;20043;-82
2023/10/28 04:22:08;;;;;;;8.00;5.28;;;;;;;10.99;100.00;98716.59;5057422;28;20074;-81
2023/10/28 04:24:35;;;;;;;10.00;6.68;;;;;;;10.97;100.00;98721.31;5054493;28;20028;-83
2023/10/28 04:27:00;;;;;;;9.98;5.53;;;;;;;10.95;100.00;98718.22;5051844;28;20070;-82
2023/10/28 04:29:25;;;;;;;10.68;6.00;;;;;;;10.96;100.00;98723.41;5053488;28;20424;-84
2023/10/28 04:31:51;;;;;;;8.60;6.05;;;;;;;10.96;100.00;98737.69;5055422;28;20032;-83
2023/10/28 04:34:18;;;;;;;7.55;5.88;;;;;;;10.95;100.00;98729.66;5054125;28;20025;-83
2023/10/28 04:36:44;;;;;;;6.57;5.00;;;;;;;10.92;100.00;98725.00;5054909;28;20057;-84
2023/10/28 04:39:09;;;;;;;7.95;5.65;;;;;;;10.88;100.00;98730.22;5053273;28;20069;-83
2023/10/28 04:41:36;;;;;;;8.60;5.53;;;;;;;10.80;100.00;98732.91;5054466;28;20110;-83
2023/10/28 04:44:01;;;;;;;7.15;4.90;;;;;;;10.80;100.00;98727.19;5055021;28;20028;-84
2023/10/28 04:46:29;;;;;;;10.65;5.57;;;;;;;10.78;100.00;98732.66;5055748;28;20028;-82
2023/10/28 04:48:56;;;;;;;12.30;6.07;;;;;;;10.83;100.00;98731.81;5059515;28;20379;-82
2023/10/28 04:51:24;;;;;;;8.15;5.18;;;;;;;10.85;100.00;98734.16;5054679;28;20074;-84
2023/10/28 04:53:56;;;;;;;5.53;4.53;;;;;;;10.84;100.00;98738.31;5054754;28;20056;-83
2023/10/28 04:56:22;;;;;;;6.90;4.97;;;;;;;10.86;100.00;98735.72;5054960;28;20037;-83
2023/10/28 04:58:49;;;;;;;7.47;4.80;;;;;;;10.88;100.00;98739.56;5051587;28;20044;-83
2023/10/28 05:01:21;;;;;;;9.00;4.93;;;;;;;10.86;100.00;98732.84;5052589;28;20037;-82
2023/10/28 05:03:46;;;;;;;5.53;4.30;;;;;;;10.81;100.00;98745.09;5054897;28;20450;-84
2023/10/28 05:06:12;;;;;;;4.80;3.78;;;;;;;10.78;100.00;98752.66;5035299;28;20466;-85
2023/10/28 05:08:38;;;;;;;9.70;4.60;;;;;;;10.72;100.00;98743.38;5053294;28;20049;-85
2023/10/28 05:11:05;;;;;;;5.90;4.95;;;;;;;10.68;100.00;98750.69;5054899;28;20029;-83
2023/10/28 05:13:31;;;;;;;7.10;4.35;;;;;;;10.64;100.00;98738.75;5054778;28;20029;-84
2023/10/28 05:15:58;;;;;;;11.02;4.82;;;;;;;10.70;100.00;98754.53;5054749;28;20052;-84
2023/10/28 05:18:26;;;;;;;8.98;4.47;;;;;;;10.68;100.00;98751.44;5054203;28;20070;-84
2023/10/28 05:21:06;;;;;;;7.22;4.20;;;;;;;10.68;100.00;98748.56;5053416;28;20097;-83
2023/10/28 05:23:33;;;;;;;5.80;5.07;;;;;;;10.70;100.00;98748.06;5054267;28;20133;-83
2023/10/28 05:25:59;;;;;;;7.00;4.85;;;;;;;10.72;100.00;98760.50;5053690;28;20056;-83
2023/10/28 05:28:25;;;;;;;7.28;4.45;;;;;;;10.72;100.00;98763.38;5053383;28;20037;-82
2023/10/28 05:30:52;;;;;;;8.32;4.45;;;;;;;10.69;100.00;98763.63;5052733;28;20025;-81
2023/10/28 05:33:20;;;;;;;5.95;4.20;;;;;;;10.62;100.00;98759.28;5053772;28;20481;-83
2023/10/28 05:35:48;;;;;;;5.25;4.28;;;;;;;10.51;100.00;98756.50;5051606;28;20047;-81
2023/10/28 05:38:16;;;;;;;5.15;3.80;;;;;;;10.50;100.00;98763.53;5058477;28;20046;-82
2023/10/28 05:40:42;;;;;;;8.50;5.10;;;;;;;10.42;100.00;98765.41;5055692;28;20040;-84
2023/10/28 05:43:08;;;;;;;6.82;4.60;;;;;;;10.33;100.00;98771.44;5057086;28;20037;-82
2023/10/28 05:45:34;;;;;;;5.35;4.47;;;;;;;10.28;100.00;98766.53;5057700;28;20462;-84
2023/10/28 05:48:06;;;;;;;6.00;4.68;;;;;;;10.22;100.00;98780.06;5056274;28;20494;-83
2023/10/28 05:50:33;;;;;;;8.43;4.75;;;;;;;10.05;100.00;98760.19;5056465;28;20040;-82
2023/10/28 05:53:01;;;;;;;10.55;4.68;;;;;;;10.11;100.00;98787.38;5055561;28;20052;-81
2023/10/28 05:55:26;;;;;;;8.13;4.95;;;;;;;10.09;100.00;98777.78;5057608;28;20048;-83
2023/10/28 05:57:52;;;;;;;7.88;4.80;;;;;;;10.07;100.00;98784.03;5057375;28;20024;-82
2023/10/28 06:00:18;;;;;;;8.30;4.82;;;;;;;10.12;100.00;98788.16;5058080;28;20029;-83
2023/10/28 06:02:43;;;;;;;8.68;4.78;;;;;;;10.10;100.00;98782.97;5059902;28;20029;-83
2023/10/28 06:05:09;;;;;;;8.85;4.47;;;;;;;10.08;100.00;98790.53;5062164;28;20120;-84
2023/10/28 06:07:34;;;;;;;11.10;5.80;;;;;;;10.04;100.00;98793.63;5063667;28;20048;-83
2023/10/28 06:10:07;;;;;;;7.35;5.10;;;;;;;9.99;100.00;98797.28;5066296;28;20076;-83
2023/10/28 06:12:37;;;;;;;7.68;5.28;;;;;;;9.96;100.00;98798.34;5061299;28;20032;-82
2023/10/28 06:15:03;;;;;;;6.25;4.97;;;;;;;9.93;100.00;98804.34;5056745;28;20044;-83
2023/10/28 06:17:29;;;;;;;10.82;5.40;;;;;;;9.88;100.00;98810.84;5057444;28;20025;-82
2023/10/28 06:19:56;;;;;;;7.28;5.35;;;;;;;9.86;100.00;98814.22;5057244;28;20071;-84
2023/10/28 06:22:23;;;;;;;8.68;4.70;;;;;;;9.81;100.00;98817.88;5056404;28;20037;-82
2023/10/28 06:24:50;;;;;;;8.60;5.13;;;;;;;9.83;100.00;98821.00;5057047;28;20068;-82
2023/10/28 06:27:16;;;;;;;8.07;5.70;;;;;;;9.69;100.00;98805.69;5056998;28;20052;-83
2023/10/28 06:29:43;;;;;;;7.65;5.78;;;;;;;9.78;100.00;98824.63;5057334;28;20032;-85
2023/10/28 06:32:09;;;;;;;8.70;6.18;;;;;;;9.75;100.00;98825.66;5057372;28;20132;-82
2023/10/28 06:34:36;;;;;;;15.52;7.80;;;;;;;9.80;100.00;98832.66;5054882;28;20029;-83
2023/10/28 06:37:01;;;;;;;13.82;7.72;;;;;;;9.69;100.00;98825.66;5058194;28;20035;-84
2023/10/28 06:39:29;;;;;;;17.17;8.20;;;;;;;9.76;100.00;98835.78;5057463;28;20033;-83
2023/10/28 06:41:56;;;;;;;9.38;6.75;;;;;;;9.84;100.00;98851.03;5056426;28;20379;-82
2023/10/28 06:44:36;;;;;;;8.95;6.65;;;;;;;9.87;100.00;98850.03;5056783;28;20047;-84
2023/10/28 06:47:05;;;;;;;8.40;6.78;;;;;;;9.91;100.00;98852.59;5054832;28;20125;-82
2023/10/28 06:49:31;;;;;;;7.47;6.00;;;;;;;9.95;100.00;98847.38;5056964;28;20033;-81
2023/10/28 06:51:57;;;;;;;9.40;6.45;;;;;;;10.00;100.00;98838.81;5058342;28;20029;-84
2023/10/28 06:54:25;;;;;;;8.52;5.72;;;;;;;10.29;100.00;98862.28;5039908;28;20033;-84
2023/10/28 06:56:51;;;;;;;8.23;5.13;;;;;;;10.52;100.00;98863.75;5056396;28;20358;-84
2023/10/28 06:59:34;;;;;;;6.00;5.03;;;;;;;10.71;100.00;98870.38;5057311;28;20031;-83
2023/10/28 07:02:03;;;;;;;5.68;4.63;;;;;;;10.76;100.00;98861.00;5056082;28;20025;-82
2023/10/28 07:04:28;;;;;;;10.50;4.80;;;;;;;10.80;100.00;98867.19;5055212;28;20074;-83
2023/10/28 07:06:55;;;;;;;7.05;4.97;;;;;;;10.85;100.00;98871.31;5055130;28;20033;-83
2023/10/28 07:09:21;;;;;;;6.93;4.80;;;;;;;10.87;100.00;98868.72;5056733;28;20032;-82
2023/10/28 07:11:47;;;;;;;8.15;5.32;;;;;;;10.92;100.00;98865.03;5056685;28;20428;-83
2023/10/28 07:14:14;;;;;;;5.75;5.05;;;;;;;11.04;100.00;98874.28;5055416;28;20122;-83
2023/10/28 07:16:41;;;;;;;5.82;4.65;;;;;;;11.12;100.00;98873.25;5058397;28;20025;-83
2023/10/28 07:19:09;;;;;;;7.88;5.35;;;;;;;11.20;100.00;98885.63;5042293;28;20083;-83
2023/10/28 07:21:36;;;;;;;8.57;5.18;;;;;;;11.37;100.00;98877.69;5079421;28;20024;-83
2023/10/28 07:24:03;;;;;;;10.23;5.50;;;;;;;11.85;100.00;98884.78;5079505;28;20048;-82
2023/10/28 07:26:29;;;;;;;5.43;4.80;;;;;;;12.82;100.00;98898.16;5079456;28;20048;-83
2023/10/28 07:28:57;;;;;;;7.25;5.43;;;;;;;13.72;100.00;98901.97;5079156;28;20017;-83
2023/10/28 07:31:23;;;;;;;6.43;4.43;;;;;;;14.62;100.00;98916.16;5077691;28;20069;-83
2023/10/28 07:33:51;;;;;;;6.22;4.10;;;;;;;15.55;100.00;98922.38;5078183;28;20064;-82
2023/10/28 07:36:17;;;;;;;4.90;2.97;;;;;;;16.35;100.00;98914.78;5067792;28;20107;-84
2023/10/28 07:38:43;;;;;;;4.18;2.85;;;;;;;17.02;100.00;98902.03;5058149;28;20029;-83
2023/10/28 07:41:10;;;;;;;4.25;2.78;;;;;;;17.70;100.00;98898.53;5057064;28;20029;-82
2023/10/28 07:43:36;;;;;;;3.92;2.50;;;;;;;18.32;100.00;98897.19;5055570;28;20032;-85
2023/10/28 07:46:04;;;;;;;4.10;2.75;;;;;;;18.73;100.00;98876.41;5057577;28;20039;-83
2023/10/28 07:48:34;;;;;;;2.42;1.95;;;;;;;19.16;100.00;98872.38;5055839;28;20037;-85
2023/10/28 07:51:02;;;;;;;4.18;3.00;;;;;;;19.58;100.00;98886.97;5055528;28;20036;-84
2023/10/28 07:53:29;;;;;;;2.88;2.30;;;;;;;19.89;100.00;98884.59;5056585;28;20082;-84
2023/10/28 07:55:56;;;;;;;2.53;2.10;;;;;;;20.05;100.00;98879.47;5056106;28;20029;-84
2023/10/28 07:58:23;;;;;;;3.47;2.10;;;;;;;20.08;100.00;98896.44;5056049;28;20031;-83
2023/10/28 08:00:53;;;;;;;3.08;2.42;;;;;;;19.80;100.00;98893.94;5054702;28;20025;-83
2023/10/28 08:03:19;;;;;;;4.03;2.15;;;;;;;19.48;100.00;98897.66;5038078;28;20029;-84
2023/10/28 08:05:46;;;;;;;3.03;2.17;;;;;;;19.09;100.00;98887.63;5054596;28;20098;-84
2023/10/28 08:08:13;;;;;;;4.97;3.00;;;;;;;18.82;100.00;98901.81;5051770;28;20033;-85
2023/10/28 08:10:54;;;;;;;3.50;2.65;;;;;;;18.49;100.00;98900.97;5056403;28;20051;-83
2023/10/28 08:13:20;;;;;;;11.85;3.28;;;;;;;18.24;100.00;98897.16;5055290;28;20027;-84
2023/10/28 08:15:49;;;;;;;4.85;2.63;;;;;;;17.96;100.00;98906.06;5056497;28;20020;-84
2023/10/28 08:18:16;;;;;;;5.32;2.40;;;;;;;17.62;100.00;98913.00;5056462;28;20021;-83
2023/10/28 08:20:44;;;;;;;4.03;2.65;;;;;;;17.34;100.00;98918.84;5054507;28;20124;-84
2023/10/28 08:23:11;;;;;;;3.33;2.22;;;;;;;17.11;100.00;98918.03;5056308;28;20121;-84
2023/10/28 08:25:38;;;;;;;8.65;2.50;;;;;;;16.90;100.00;98907.38;5056080;28;20075;-84
2023/10/28 08:28:03;;;;;;;3.47;2.40;;;;;;;16.73;100.00;98912.91;5053880;28;20403;-83
2023/10/28 08:30:29;;;;;;;3.40;1.88;;;;;;;16.55;100.00;98908.16;5054046;28;20024;-83
2023/10/28 08:32:55;;;;;;;4.68;1.90;;;;;;;16.36;100.00;98916.31;5053995;28;20417;-84
2023/10/28 08:35:28;;;;;;;2.78;1.88;;;;;;;16.22;100.00;98918.53;5053039;28;20029;-84
2023/10/28 08:37:55;;;;;;;7.35;2.40;;;;;;;16.09;100.00;98905.00;5053416;28;20017;-83
2023/10/28 08:40:20;;;;;;;2.80;2.03;;;;;;;16.03;100.00;98920.91;5053712;28;20033;-84
2023/10/28 08:42:46;;;;;;;3.80;2.20;;;;;;;15.96;100.00;98916.59;5053542;28;20400;-85
2023/10/28 08:45:13;;;;;;;2.97;1.80;;;;;;;15.92;100.00;98909.66;5057075;28;20036;-84
2023/10/28 08:47:54;;;;;;;3.25;2.13;;;;;;;15.95;100.00;98915.09;5062624;28;20060;-84
2023/10/28 08:50:38;;;;;;;2.55;1.80;;;;;;;16.04;100.00;98920.34;5054185;28;20024;-84
2023/10/28 08:53:04;;;;;;;2.13;1.55;;;;;;;16.17;100.00;98922.34;5054971;28;20029;-84
2023/10/28 08:55:30;;;;;;;5.30;2.25;;;;;;;16.29;100.00;98922.81;5037307;28;20057;-85
2023/10/28 08:57:59;;;;;;;3.05;1.80;;;;;;;16.35;100.00;98918.41;5053857;28;20020;-85
2023/10/28 09:00:25;;;;;;;2.75;2.55;;;;;;;16.40;100.00;98929.00;5055325;28;20017;-85
2023/10/28 09:03:06;;;;;;;3.58;1.77;;;;;;;16.39;100.00;98929.59;5037478;28;20051;-84
2023/10/28 09:05:32;;;;;;;5.18;2.55;;;;;;;16.35;100.00;98929.94;5054218;28;20036;-84
2023/10/28 09:07:57;;;;;;;3.80;1.95;;;;;;;16.35;100.00;98929.94;5054823;28;20029;-84
2023/10/28 09:10:23;;;;;;;1.52;1.42;;;;;;;16.42;100.00;98928.47;5053457;28;20039;-84
2023/10/28 09:12:55;;;;;;;2.78;2.00;;;;;;;16.54;100.00;98924.72;5052495;28;20119;-83
2023/10/28 09:15:25;;;;;;;1.90;1.38;;;;;;;16.76;100.00;98937.72;5052825;28;20092;-83
2023/10/28 09:17:52;;;;;;;7.38;2.92;;;;;;;16.89;100.00;98940.50;5054347;28;20036;-84
2023/10/28 09:20:18;;;;;;;3.15;1.80;;;;;;;16.92;100.00;98924.91;5054261;28;20368;-85
2023/10/28 09:22:47;;;;;;;2.38;1.48;;;;;;;17.21;100.00;98940.00;5055049;28;20109;-83
2023/10/28 09:25:17;;;;;;;5.95;1.52;;;;;;;17.45;100.00;98946.66;5050218;28;20033;-84
2023/10/28 09:27:45;;;;;;;1.20;1.10;;;;;;;17.55;100.00;98933.97;5053473;28;20033;-83
2023/10/28 09:30:12;;;;;;;1.85;1.13;;;;;;;17.81;100.00;98948.06;5054612;28;20474;-84
2023/10/28 09:32:38;;;;;;;6.03;1.13;;;;;;;17.87;100.00;98959.44;5019853;28;20032;-85
2023/10/28 09:35:09;;;;;;;1.20;1.10;;;;;;;17.76;100.00;98936.69;5053768;28;20029;-84
2023/10/28 09:37:50;;;;;;;1.65;0.90;;;;;;;17.95;100.00;98956.53;5036773;28;20029;-84
2023/10/28 09:40:18;;;;;;;1.67;1.10;;;;;;;18.07;100.00;98955.59;5054789;28;20028;-84
2023/10/28 09:42:44;;;;;;;7.93;1.02;;;;;;;18.08;100.00;98933.97;5055185;28;20046;-85
2023/10/28 09:45:24;;;;;;;2.22;1.00;;;;;;;18.10;100.00;98959.44;5053971;28;20477;-86
2023/10/28 09:47:57;;;;;;;1.55;1.05;;;;;;;18.06;100.00;98953.28;5053508;28;20049;-84
2023/10/28 09:50:25;;;;;;;1.92;1.00;;;;;;;18.04;100.00;98958.84;5036733;28;20090;-86
2023/10/28 09:53:11;;;;;;;1.90;0.90;;;;;;;17.94;100.00;98970.22;5036388;28;20033;-85
2023/10/28 09:55:41;;;;;;;1.83;0.88;;;;;;;17.74;100.00;98962.50;5049504;28;20037;-85
2023/10/28 09:58:34;;;;;;;4.57;1.05;;;;;;;17.54;100.00;98969.19;5053392;28;20389;-85
2023/10/28 10:01:08;;;;;;;2.75;0.60;;;;;;;17.38;100.00;98966.25;5054463;28;20048;-85
2023/10/28 10:04:04;;;;;;;3.10;0.70;;;;;;;17.34;100.00;98967.94;5037003;28;20065;-84
2023/10/28 10:06:31;;;;;;;1.13;0.90;;;;;;;17.30;100.00;98968.34;5054632;28;20021;-85
2023/10/28 10:09:19;;;;;;;0.93;0.70;;;;;;;17.36;100.00;98960.28;5052968;28;20135;-83
2023/10/28 10:11:51;;;;;;;3.17;0.70;;;;;;;17.44;100.00;98974.75;5055069;28;20394;-84
2023/10/28 10:14:18;;;;;;;1.30;0.75;;;;;;;17.40;100.00;98965.66;5053847;28;20134;-85
2023/10/28 10:17:41;;;;;;;1.33;0.80;;;;;;;17.32;100.00;98973.53;5053554;28;20043;-85
2023/10/28 10:20:09;;;;;;;1.92;1.15;;;;;;;17.26;100.00;98964.28;4973797;28;20534;-85
2023/10/28 10:22:38;;;;;;;3.58;0.77;;;;;;;17.22;100.00;98973.31;4973211;28;20046;-84
2023/10/28 10:25:44;;;;;;;1.58;0.75;;;;;;;17.17;100.00;98967.72;4976390;28;20081;-83
2023/10/28 10:28:19;;;;;;;1.42;0.70;;;;;;;17.15;100.00;98974.06;4972372;28;20029;-84
2023/10/28 10:30:46;;;;;;;1.08;0.55;;;;;;;17.12;100.00;98968.66;4977071;28;20030;-84
2023/10/28 10:33:12;;;;;;;4.22;0.70;;;;;;;16.88;100.00;98944.72;4977138;28;20192;-85
2023/10/28 10:35:41;;;;;;;1.02;0.70;;;;;;;17.04;100.00;98967.88;5056975;28;20155;-85
2023/10/28 10:38:11;;;;;;;1.98;0.63;;;;;;;17.09;100.00;98972.69;5039955;28;20036;-85
2023/10/28 10:40:58;;;;;;;0.73;0.73;;;;;;;17.02;100.00;98979.19;5077080;28;20017;-83
2023/10/28 10:43:31;;;;;;;1.52;0.65;;;;;;;16.97;100.00;98978.81;5078312;28;20454;-83
2023/10/28 10:46:12;;;;;;;0.68;0.55;;;;;;;17.08;100.00;98985.59;5065375;28;20028;-85
2023/10/28 10:48:39;;;;;;;3.42;0.70;;;;;;;17.15;100.00;98987.72;5058819;28;20478;-85
2023/10/28 10:51:19;;;;;;;0.80;0.80;;;;;;;17.16;100.00;98977.72;5056718;28;20037;-86
2023/10/28 10:53:47;;;;;;;;;;;;;;;17.17;100.00;98990.81;5056877;28;20183;-84
2023/10/28 10:56:23;;;;;;;0.57;0.55;;;;;;;17.18;100.00;98986.59;5037144;28;19965;-84
2023/10/28 10:58:50;;;;;;;1.63;0.60;;;;;;;17.20;100.00;98990.44;5038719;28;20065;-84
2023/10/28 11:01:16;;;;;;;0.75;0.60;;;;;;;17.10;100.00;98985.75;5055617;28;20115;-86
2023/10/28 11:03:57;;;;;;;4.22;0.70;;;;;;;17.07;100.00;98989.81;5058166;28;20029;-84
2023/10/28 11:06:24;;;;;;;1.90;0.63;;;;;;;17.04;100.00;98990.97;5057330;28;20025;-85
2023/10/28 11:08:50;;;;;;;1.90;0.85;;;;;;;16.96;100.00;98982.25;5055917;28;20409;-84
2023/10/28 11:11:17;;;;;;;3.05;0.75;;;;;;;16.89;100.00;98980.13;5056067;28;20116;-85
2023/10/28 11:13:44;;;;;;;1.60;0.70;;;;;;;16.84;100.00;98990.47;5056697;28;20028;-84
2023/10/28 11:16:23;;;;;;;0.68;0.55;;;;;;;16.80;100.00;98990.03;5059122;28;20497;-83
2023/10/28 11:18:48;;;;;;;3.47;0.60;;;;;;;16.82;100.00;98998.91;5057774;28;20033;-84
2023/10/28 11:21:15;;;;;;;0.98;0.60;;;;;;;16.80;100.00;98992.16;5058566;28;20101;-84
2023/10/28 11:23:45;;;;;;;1.35;0.70;;;;;;;16.74;100.00;98992.34;5060689;28;20041;-84
2023/10/28 11:26:17;;;;;;;1.55;0.93;;;;;;;16.76;100.00;99000.41;5058557;28;20025;-85
2023/10/28 11:28:44;;;;;;;2.67;1.00;;;;;;;16.78;100.00;99004.28;5039583;28;20082;-84